createdAt,value
2022-07-25T00:01:07.548Z,100977.75
2022-07-25T00:03:37.247Z,100975.91
2022-07-25T00:06:12.790Z,100970.59
2022-07-25T00:08:49.895Z,100971.47
2022-07-25T00:11:19.660Z,100970.59
2022-07-25T00:13:49.686Z,100965.22
2022-07-25T00:16:19.497Z,100960.75
2022-07-25T00:18:49.304Z,100959.88
2022-07-25T00:21:19.197Z,100958.97
2022-07-25T00:23:51.708Z,100955.44
2022-07-25T00:26:21.516Z,100954.59
2022-07-25T00:28:51.234Z,100951.00
2022-07-25T00:31:20.997Z,100947.50
2022-07-25T00:33:50.760Z,100944.81
2022-07-25T00:36:20.587Z,100939.41
2022-07-25T00:38:52.881Z,100941.22
2022-07-25T00:41:22.674Z,100934.97
2022-07-25T00:43:52.546Z,100926.03
2022-07-25T00:46:22.397Z,100923.38
2022-07-25T00:48:53.793Z,100918.00
2022-07-25T00:51:23.590Z,100918.03
2022-07-25T00:53:55.909Z,100917.19
2022-07-25T00:56:26.048Z,100924.38
2022-07-25T00:58:55.809Z,100921.69
2022-07-25T01:01:25.624Z,100923.56
2022-07-25T01:03:55.484Z,100928.97
2022-07-25T01:06:25.837Z,100927.19
2022-07-25T01:08:58.646Z,100922.69
2022-07-25T01:11:28.828Z,100922.69
2022-07-25T01:13:58.577Z,100928.19
2022-07-25T01:16:28.400Z,100924.59
2022-07-25T01:18:58.138Z,100913.84
2022-07-25T01:21:30.667Z,100924.72
2022-07-25T01:24:00.439Z,100917.59
2022-07-25T01:26:30.647Z,100923.03
2022-07-25T01:29:00.563Z,100922.09
2022-07-25T01:31:30.396Z,100920.28
2022-07-25T01:34:00.165Z,100916.75
2022-07-25T01:36:32.510Z,100923.06
2022-07-25T01:39:02.242Z,100918.63
2022-07-25T01:41:32.002Z,100908.75
2022-07-25T01:44:01.723Z,100917.72
2022-07-25T01:46:31.526Z,100900.75
2022-07-25T01:49:01.372Z,100898.06
2022-07-25T01:51:33.844Z,100896.25
2022-07-25T01:54:03.981Z,100896.28
2022-07-25T01:56:38.690Z,100893.66
2022-07-25T01:59:10.465Z,100887.44
2022-07-25T02:01:40.284Z,100884.81
2022-07-25T02:04:10.419Z,100883.91
2022-07-25T02:06:43.646Z,100875.88
2022-07-25T02:09:13.494Z,100869.69
2022-07-25T02:11:43.258Z,100867.91
2022-07-25T02:14:13.133Z,100863.50
2022-07-25T02:16:42.926Z,100858.19
2022-07-25T02:19:12.766Z,100850.25
2022-07-25T02:21:45.145Z,100850.34
2022-07-25T02:24:14.880Z,100852.25
2022-07-25T02:26:44.801Z,100841.63
2022-07-25T02:29:14.539Z,100845.31
2022-07-25T02:31:44.283Z,100838.19
2022-07-25T02:34:14.029Z,100829.34
2022-07-25T02:36:46.380Z,100816.97
2022-07-25T02:39:16.608Z,100817.94
2022-07-25T02:41:46.892Z,100821.63
2022-07-25T02:44:16.594Z,100815.50
2022-07-25T02:46:46.318Z,100802.31
2022-07-25T02:49:16.782Z,100806.13
2022-07-25T02:51:49.176Z,100801.84
2022-07-25T02:54:20.235Z,100798.34
2022-07-25T02:56:49.945Z,100785.06
2022-07-25T02:59:19.684Z,100788.75
2022-07-25T03:01:49.560Z,100777.28
2022-07-25T03:04:19.312Z,100766.66
2022-07-25T03:06:52.291Z,100767.75
2022-07-25T03:09:22.021Z,100769.53
2022-07-25T03:11:52.221Z,100780.25
2022-07-25T03:14:21.931Z,100769.53
2022-07-25T03:16:51.691Z,100767.66
2022-07-25T03:19:21.461Z,100770.31
2022-07-25T03:21:53.781Z,100765.78
2022-07-25T03:24:23.554Z,100761.28
2022-07-25T03:26:53.286Z,100752.38
2022-07-25T03:29:22.975Z,100735.56
2022-07-25T03:31:52.736Z,100732.19
2022-07-25T03:34:22.521Z,100713.69
2022-07-25T03:36:54.903Z,100719.09
2022-07-25T03:39:25.134Z,100711.91
2022-07-25T03:41:55.309Z,100710.91
2022-07-25T03:44:26.651Z,100702.88
2022-07-25T03:46:56.375Z,100707.41
2022-07-25T03:49:26.075Z,100717.22
2022-07-25T03:51:58.387Z,100711.84
2022-07-25T03:54:28.123Z,100702.84
2022-07-25T03:56:57.870Z,100694.81
2022-07-25T03:59:27.604Z,100704.69
2022-07-25T04:01:57.528Z,100693.03
2022-07-25T04:04:27.335Z,100682.31
2022-07-25T04:06:59.789Z,100690.28
2022-07-25T04:09:31.085Z,100694.69
2022-07-25T04:12:03.560Z,100697.31
2022-07-25T04:14:33.272Z,100691.88
2022-07-25T04:17:03.249Z,100690.06
2022-07-25T04:19:33.068Z,100690.94
2022-07-25T04:22:05.416Z,100688.25
2022-07-25T04:24:35.273Z,100689.94
2022-07-25T04:27:05.027Z,100686.31
2022-07-25T04:29:34.820Z,100688.03
2022-07-25T04:32:04.657Z,100675.41
2022-07-25T04:34:34.625Z,100677.97
2022-07-25T04:37:06.977Z,100677.03
2022-07-25T04:39:36.700Z,100681.44
2022-07-25T04:42:07.049Z,100682.31
2022-07-25T04:44:36.780Z,100677.75
2022-07-25T04:47:06.985Z,100681.28
2022-07-25T04:49:37.105Z,100674.94
2022-07-25T04:52:09.666Z,100681.16
2022-07-25T04:54:39.427Z,100674.84
2022-07-25T04:57:09.152Z,100672.97
2022-07-25T04:59:38.929Z,100673.81
2022-07-25T05:02:08.798Z,100663.00
2022-07-25T05:04:44.782Z,100662.94
2022-07-25T05:07:17.605Z,100656.59
2022-07-25T05:09:47.535Z,100660.09
2022-07-25T05:12:17.265Z,100669.00
2022-07-25T05:14:47.520Z,100669.00
2022-07-25T05:17:17.258Z,100667.13
2022-07-25T05:19:47.009Z,100650.06
2022-07-25T05:22:19.323Z,100642.88
2022-07-25T05:24:49.056Z,100645.63
2022-07-25T05:27:21.693Z,100641.84
2022-07-25T05:29:51.421Z,100637.16
2022-07-25T05:32:21.146Z,100646.81
2022-07-25T05:34:50.856Z,100645.78
2022-07-25T05:37:23.259Z,100650.13
2022-07-25T05:39:53.333Z,100653.63
2022-07-25T05:42:23.053Z,100652.66
2022-07-25T05:44:52.819Z,100649.00
2022-07-25T05:47:22.709Z,100657.00
2022-07-25T05:49:52.447Z,100656.03
2022-07-25T05:52:24.862Z,100647.03
2022-07-25T05:54:54.568Z,100639.88
2022-07-25T05:57:24.328Z,100640.66
2022-07-25T05:59:54.028Z,100637.97
2022-07-25T06:02:23.882Z,100639.69
2022-07-25T06:04:53.777Z,100629.78
2022-07-25T06:07:26.164Z,100624.25
2022-07-25T06:09:55.958Z,100633.94
2022-07-25T06:12:25.867Z,100640.00
2022-07-25T06:14:56.221Z,100634.38
2022-07-25T06:17:30.540Z,100617.97
2022-07-25T06:20:02.073Z,100625.88
2022-07-25T06:22:35.889Z,100620.28
2022-07-25T06:25:05.746Z,100621.81
2022-07-25T06:27:35.802Z,100620.63
2022-07-25T06:30:18.774Z,100620.34
2022-07-25T06:32:49.964Z,100614.69
2022-07-25T06:35:20.081Z,100619.84
2022-07-25T06:37:52.538Z,100620.47
2022-07-25T06:40:22.335Z,100628.25
2022-07-25T06:42:52.120Z,100622.53
2022-07-25T06:45:21.934Z,100625.50
2022-07-25T06:47:51.854Z,100632.44
2022-07-25T06:50:22.457Z,100629.31
2022-07-25T06:52:55.193Z,100624.53
2022-07-25T06:55:24.894Z,100625.03
2022-07-25T06:57:54.748Z,100627.06
2022-07-25T07:00:24.612Z,100624.72
2022-07-25T07:02:56.450Z,100626.97
2022-07-25T07:05:28.884Z,100644.03
2022-07-25T07:08:01.981Z,100646.00
2022-07-25T07:10:31.819Z,100637.75
2022-07-25T07:13:10.084Z,100643.03
2022-07-25T07:15:41.051Z,100637.88
2022-07-25T07:18:10.918Z,100629.22
2022-07-25T07:20:40.800Z,100623.00
2022-07-25T07:23:16.568Z,100621.91
2022-07-25T07:25:47.513Z,100624.44
2022-07-25T07:28:18.164Z,100620.78
2022-07-25T07:33:38.056Z,100613.13
2022-07-25T07:36:08.228Z,100599.16
2022-07-25T07:38:40.599Z,100601.78
2022-07-25T07:41:10.885Z,100610.88
2022-07-25T07:43:40.614Z,100607.28
2022-07-25T07:46:10.721Z,100604.72
2022-07-25T07:48:41.064Z,100605.63
2022-07-25T07:51:11.137Z,100611.03
2022-07-25T07:53:55.883Z,100606.72
2022-07-25T07:56:25.590Z,100612.22
2022-07-25T07:58:55.338Z,100606.16
2022-07-25T08:01:25.216Z,100603.97
2022-07-25T08:03:55.189Z,100603.44
2022-07-25T08:06:24.932Z,100600.19
2022-07-25T08:08:57.257Z,100604.13
2022-07-25T08:11:26.987Z,100613.28
2022-07-25T08:13:56.800Z,100635.81
2022-07-25T08:16:26.594Z,100631.41
2022-07-25T08:18:56.470Z,100622.75
2022-07-25T08:21:26.193Z,100622.84
2022-07-25T08:23:58.533Z,100606.91
2022-07-25T08:26:28.283Z,100606.31
2022-07-25T08:29:17.616Z,100609.25
2022-07-25T08:31:48.202Z,100611.16
2022-07-25T08:34:18.045Z,100620.31
2022-07-25T08:36:47.755Z,100615.03
2022-07-25T08:39:20.245Z,100588.25
2022-07-25T08:41:51.061Z,100605.38
2022-07-25T08:44:22.496Z,100625.97
2022-07-25T08:46:53.207Z,100607.19
2022-07-25T08:49:23.501Z,100633.31
2022-07-25T08:51:54.545Z,100627.06
2022-07-25T08:54:27.357Z,100626.31
2022-07-25T08:56:57.092Z,100622.72
2022-07-25T08:59:26.867Z,100631.66
2022-07-25T09:01:58.531Z,100639.03
2022-07-25T09:04:29.032Z,100641.63
2022-07-25T09:06:58.979Z,100640.63
2022-07-25T09:09:39.686Z,100650.59
2022-07-25T09:12:10.717Z,100645.13
2022-07-25T09:14:49.011Z,100646.13
2022-07-25T09:17:22.326Z,100643.28
2022-07-25T09:19:57.011Z,100647.69
2022-07-25T09:22:27.781Z,100631.47
2022-07-25T09:25:00.666Z,100628.75
2022-07-25T09:27:37.093Z,100643.06
2022-07-25T09:30:15.741Z,100633.16
2022-07-25T09:32:45.917Z,100633.97
2022-07-25T09:35:16.171Z,100617.81
2022-07-25T09:37:45.944Z,100625.09
2022-07-25T09:40:19.917Z,100631.19
2022-07-25T09:42:53.733Z,100620.41
2022-07-25T09:45:25.146Z,100629.41
2022-07-25T09:48:01.840Z,100657.47
2022-07-25T09:50:33.909Z,100654.03
2022-07-25T09:53:05.256Z,100628.97
2022-07-25T09:55:37.626Z,100644.56
2022-07-25T09:58:07.375Z,100680.41
2022-07-25T10:00:37.526Z,100686.34
2022-07-25T10:03:32.312Z,100681.19
2022-07-25T10:06:17.799Z,100667.75
2022-07-25T10:08:47.752Z,100663.19
2022-07-25T10:11:30.046Z,100689.28
2022-07-25T10:13:59.892Z,100723.72
2022-07-25T10:16:30.571Z,100687.16
2022-07-25T10:19:01.713Z,100651.13
2022-07-25T10:21:31.806Z,100646.63
2022-07-25T10:24:04.869Z,100650.03
2022-07-25T10:26:41.339Z,100659.47
2022-07-25T10:29:13.257Z,100678.84
2022-07-25T10:31:50.343Z,100666.06
2022-07-25T10:34:31.687Z,100646.91
2022-07-25T10:37:12.840Z,100671.94
2022-07-25T10:39:44.869Z,100672.81
2022-07-25T10:42:23.359Z,100663.53
2022-07-25T10:44:57.607Z,100669.66
2022-07-25T10:47:30.196Z,100681.09
2022-07-25T10:53:01.828Z,100692.88
2022-07-25T10:55:32.085Z,100683.16
2022-07-25T10:58:17.914Z,100686.78
2022-07-25T11:00:48.078Z,100706.47
2022-07-25T11:03:18.811Z,100705.63
2022-07-25T11:05:49.760Z,100703.81
2022-07-25T11:08:21.944Z,100695.53
2022-07-25T11:10:55.289Z,100686.22
2022-07-25T11:13:27.752Z,100690.13
2022-07-25T11:16:00.601Z,100681.31
2022-07-25T11:18:37.747Z,100696.88
2022-07-25T11:21:09.404Z,100695.38
2022-07-25T11:23:39.416Z,100701.09
2022-07-25T11:26:10.928Z,100703.91
2022-07-25T11:28:45.682Z,100699.63
2022-07-25T11:31:16.529Z,100707.66
2022-07-25T11:33:50.700Z,100712.13
2022-07-25T11:36:21.085Z,100717.91
2022-07-25T11:38:52.048Z,100707.22
2022-07-25T11:41:31.818Z,100715.97
2022-07-25T11:44:04.169Z,100713.09
2022-07-25T11:46:44.500Z,100726.31
2022-07-25T11:49:15.218Z,100714.22
2022-07-25T11:51:46.214Z,100722.19
2022-07-25T11:54:16.820Z,100730.16
2022-07-25T11:56:47.351Z,100720.91
2022-07-25T11:59:19.977Z,100725.47
2022-07-25T12:01:50.196Z,100718.25
2022-07-25T12:04:22.342Z,100733.41
2022-07-25T12:06:52.599Z,100735.88
2022-07-25T12:09:24.378Z,100738.66
2022-07-25T12:12:05.552Z,100736.94
2022-07-25T12:14:45.478Z,100737.66
2022-07-25T12:17:15.299Z,100732.03
2022-07-25T12:19:48.557Z,100738.97
2022-07-25T12:22:18.289Z,100737.69
2022-07-25T12:24:48.106Z,100737.38
2022-07-25T12:27:17.897Z,100735.56
2022-07-25T12:29:50.600Z,100743.97
2022-07-25T12:32:20.318Z,100748.59
2022-07-25T12:34:50.021Z,100755.47
2022-07-25T12:37:21.794Z,100751.66
2022-07-25T12:39:51.673Z,100753.47
2022-07-25T12:42:21.490Z,100747.94
2022-07-25T12:44:54.058Z,100754.84
2022-07-25T12:47:24.050Z,100749.31
2022-07-25T12:49:53.898Z,100746.75
2022-07-25T12:52:23.796Z,100745.97
2022-07-25T12:54:54.063Z,100751.34
2022-07-25T12:57:23.770Z,100762.97
2022-07-25T12:59:56.097Z,100752.34
2022-07-25T13:02:25.904Z,100769.94
2022-07-25T13:04:55.673Z,100762.16
2022-07-25T13:07:25.472Z,100764.16
2022-07-25T13:09:55.255Z,100762.84
2022-07-25T13:12:25.307Z,100754.06
2022-07-25T13:14:57.706Z,100759.75
2022-07-25T13:17:27.996Z,100757.81
2022-07-25T13:19:57.941Z,100756.78
2022-07-25T13:22:28.404Z,100761.00
2022-07-25T13:24:58.328Z,100766.50
2022-07-25T13:27:28.049Z,100765.13
2022-07-25T13:30:00.408Z,100765.34
2022-07-25T13:32:31.950Z,100766.66
2022-07-25T13:35:01.660Z,100762.22
2022-07-25T13:37:31.398Z,100761.75
2022-07-25T13:40:01.351Z,100768.22
2022-07-25T13:42:31.237Z,100772.72
2022-07-25T13:45:03.730Z,100776.47
2022-07-25T13:47:39.305Z,100777.41
2022-07-25T13:50:09.651Z,100767.47
2022-07-25T13:52:39.382Z,100776.06
2022-07-25T13:55:12.333Z,100775.00
2022-07-25T13:57:42.064Z,100773.94
2022-07-25T14:00:15.429Z,100774.72
2022-07-25T14:02:45.222Z,100778.44
2022-07-25T14:05:15.171Z,100780.22
2022-07-25T14:07:45.072Z,100776.34
2022-07-25T14:10:14.788Z,100772.81
2022-07-25T14:12:44.666Z,100765.59
2022-07-25T14:15:17.705Z,100778.91
2022-07-25T14:17:49.929Z,100769.03
2022-07-25T14:20:19.657Z,100771.09
2022-07-25T14:22:49.451Z,100764.91
2022-07-25T14:25:21.842Z,100782.66
2022-07-25T14:27:51.573Z,100768.81
2022-07-25T14:30:23.900Z,100776.09
2022-07-25T14:32:53.619Z,100772.56
2022-07-25T14:35:25.516Z,100776.13
2022-07-25T14:37:58.591Z,100773.34
2022-07-25T14:40:28.353Z,100775.88
2022-07-25T14:42:58.063Z,100775.06
2022-07-25T14:45:30.439Z,100775.78
2022-07-25T14:48:00.223Z,100772.25
2022-07-25T14:50:30.363Z,100774.63
2022-07-25T14:53:00.093Z,100771.91
2022-07-25T14:55:29.927Z,100779.16
2022-07-25T14:58:02.554Z,100770.00
2022-07-25T15:00:34.976Z,100771.31
2022-07-25T15:03:04.741Z,100773.38
2022-07-25T15:05:35.696Z,100777.34
2022-07-25T15:08:05.481Z,100783.66
2022-07-25T15:10:35.200Z,100776.84
2022-07-25T15:13:29.929Z,100784.19
2022-07-25T15:15:57.260Z,100788.03
2022-07-25T15:18:27.105Z,100782.81
2022-07-25T15:20:57.040Z,100784.41
2022-07-25T15:23:30.347Z,100782.66
2022-07-25T15:26:02.907Z,100783.84
2022-07-25T15:28:33.450Z,100781.47
2022-07-25T15:31:06.554Z,100782.38
2022-07-25T15:33:36.656Z,100791.31
2022-07-25T15:36:08.208Z,100798.72
2022-07-25T15:38:38.118Z,100800.16
2022-07-25T15:41:10.785Z,100787.84
2022-07-25T15:43:40.803Z,100802.31
2022-07-25T15:46:14.903Z,100803.25
2022-07-25T15:48:46.752Z,100796.25
2022-07-25T15:51:18.515Z,100803.81
2022-07-25T15:53:48.632Z,100805.44
2022-07-25T15:56:18.799Z,100808.41
2022-07-25T15:58:51.281Z,100793.06
2022-07-25T16:01:23.697Z,100804.06
2022-07-25T16:03:53.658Z,100804.91
2022-07-25T16:06:24.272Z,100810.19
2022-07-25T16:08:54.138Z,100804.84
2022-07-25T16:11:23.868Z,100807.34
2022-07-25T16:13:53.913Z,100807.28
2022-07-25T16:16:26.417Z,100804.66
2022-07-25T16:18:56.187Z,100805.63
2022-07-25T16:21:25.993Z,100801.38
2022-07-25T16:23:55.902Z,100801.38
2022-07-25T16:26:25.729Z,100801.38
2022-07-25T16:28:57.771Z,100803.97
2022-07-25T16:31:30.348Z,100808.22
2022-07-25T16:34:00.237Z,100804.69
2022-07-25T16:36:29.980Z,100809.19
2022-07-25T16:39:00.403Z,100804.75
2022-07-25T16:41:30.411Z,100807.50
2022-07-25T16:44:00.169Z,100814.56
2022-07-25T16:46:32.634Z,100812.63
2022-07-25T16:49:02.556Z,100814.47
2022-07-25T16:51:36.838Z,100814.38
2022-07-25T16:54:07.281Z,100804.81
2022-07-25T16:56:37.339Z,100804.94
2022-07-25T16:59:08.139Z,100816.72
2022-07-25T17:01:40.796Z,100808.00
2022-07-25T17:04:10.666Z,100802.88
2022-07-25T17:06:41.694Z,100828.94
2022-07-25T17:09:11.882Z,100816.59
2022-07-25T17:11:41.604Z,100827.38
2022-07-25T17:14:11.333Z,100833.44
2022-07-25T17:16:44.352Z,100832.44
2022-07-25T17:19:14.090Z,100827.06
2022-07-25T17:21:43.786Z,100829.75
2022-07-25T17:24:14.016Z,100838.09
2022-07-25T17:26:43.802Z,100838.31
2022-07-25T17:29:13.533Z,100832.97
2022-07-25T17:31:46.041Z,100833.03
2022-07-25T17:34:15.802Z,100828.63
2022-07-25T17:36:45.697Z,100830.34
2022-07-25T17:39:15.731Z,100828.47
2022-07-25T17:41:45.460Z,100839.22
2022-07-25T17:44:15.476Z,100842.94
2022-07-25T17:46:50.247Z,100836.88
2022-07-25T17:49:20.440Z,100847.59
2022-07-25T17:51:50.378Z,100849.44
2022-07-25T17:54:20.180Z,100849.50
2022-07-25T17:56:49.936Z,100853.03
2022-07-25T17:59:19.682Z,100850.50
2022-07-25T18:01:52.049Z,100851.47
2022-07-25T18:04:21.788Z,100859.59
2022-07-25T18:06:51.562Z,100854.13
2022-07-25T18:09:22.782Z,100841.75
2022-07-25T18:11:54.747Z,100842.59
2022-07-25T18:14:24.697Z,100855.16
2022-07-25T18:16:57.446Z,100854.25
2022-07-25T18:19:27.199Z,100856.03
2022-07-25T18:21:56.942Z,100855.22
2022-07-25T18:24:29.440Z,100863.25
2022-07-25T18:26:59.592Z,100866.09
2022-07-25T18:29:29.538Z,100872.44
2022-07-25T18:32:01.955Z,100868.06
2022-07-25T18:34:32.928Z,100859.19
2022-07-25T18:37:02.976Z,100860.13
2022-07-25T18:39:32.808Z,100866.47
2022-07-25T18:42:02.533Z,100865.53
2022-07-25T18:44:32.705Z,100862.06
2022-07-25T18:47:05.722Z,100869.19
2022-07-25T18:49:36.120Z,100877.31
2022-07-25T18:52:06.029Z,100865.81
2022-07-25T18:54:35.895Z,100868.59
2022-07-25T18:57:08.016Z,100869.56
2022-07-25T18:59:38.705Z,100864.28
2022-07-25T19:02:11.172Z,100872.25
2022-07-25T19:04:41.032Z,100869.59
2022-07-25T19:07:11.120Z,100872.25
2022-07-25T19:09:40.884Z,100875.81
2022-07-25T19:12:11.670Z,100874.94
2022-07-25T19:14:41.349Z,100869.59
2022-07-25T19:17:13.968Z,100874.09
2022-07-25T19:19:44.069Z,100874.06
2022-07-25T19:22:13.808Z,100874.06
2022-07-25T19:24:43.673Z,100878.69
2022-07-25T19:27:13.895Z,100882.22
2022-07-25T19:29:45.191Z,100892.00
2022-07-25T19:32:18.212Z,100891.19
2022-07-25T19:34:51.213Z,100891.97
2022-07-25T19:37:21.065Z,100894.69
2022-07-25T19:39:51.448Z,100894.66
2022-07-25T19:42:21.570Z,100896.50
2022-07-25T19:44:51.333Z,100902.78
2022-07-25T19:47:23.653Z,100903.69
2022-07-25T19:49:54.557Z,100907.25
2022-07-25T19:52:24.300Z,100908.09
2022-07-25T19:54:54.676Z,100917.03
2022-07-25T19:57:24.402Z,100914.34
2022-07-25T19:59:54.110Z,100921.47
2022-07-25T20:02:27.235Z,100916.13
2022-07-25T20:04:57.769Z,100915.31
2022-07-25T20:07:27.581Z,100918.03
2022-07-25T20:09:57.296Z,100917.13
2022-07-25T20:12:27.017Z,100918.91
2022-07-25T20:14:56.737Z,100925.19
2022-07-25T20:17:29.533Z,100921.63
2022-07-25T20:19:59.254Z,100926.06
2022-07-25T20:22:29.087Z,100926.97
2022-07-25T20:24:58.817Z,100929.66
2022-07-25T20:27:28.527Z,100922.59
2022-07-25T20:29:58.256Z,100925.19
2022-07-25T20:32:30.522Z,100926.06
2022-07-25T20:35:00.585Z,100925.19
2022-07-25T20:37:30.313Z,100924.34
2022-07-25T20:40:00.029Z,100919.91
2022-07-25T20:42:29.866Z,100923.53
2022-07-25T20:44:59.646Z,100922.66
2022-07-25T20:47:32.008Z,100923.59
2022-07-25T20:50:01.712Z,100926.25
2022-07-25T20:52:33.388Z,100928.94
2022-07-25T20:55:06.638Z,100934.34
2022-07-25T20:57:36.996Z,100933.44
2022-07-25T21:00:07.924Z,100933.44
2022-07-25T21:02:40.360Z,100938.81
2022-07-25T21:05:11.164Z,100933.47
2022-07-25T21:07:40.874Z,100938.84
2022-07-25T21:10:12.300Z,100945.97
2022-07-25T21:12:42.559Z,100940.66
2022-07-25T21:15:13.288Z,100943.34
2022-07-25T21:17:45.684Z,100942.47
2022-07-25T21:20:17.247Z,100941.56
2022-07-25T21:22:48.018Z,100943.38
2022-07-25T21:25:18.280Z,100946.06
2022-07-25T21:27:48.006Z,100950.47
2022-07-25T21:30:17.911Z,100946.00
2022-07-25T21:32:50.343Z,100954.94
2022-07-25T21:35:20.414Z,100951.41
2022-07-25T21:37:50.118Z,100946.13
2022-07-25T21:40:20.115Z,100949.63
2022-07-25T21:42:49.871Z,100954.06
2022-07-25T21:45:19.885Z,100960.28
2022-07-25T21:47:52.246Z,100955.84
2022-07-25T21:50:35.092Z,100956.72
2022-07-25T21:53:14.468Z,100953.13
2022-07-25T21:55:44.173Z,100954.03
2022-07-25T21:58:13.907Z,100956.72
2022-07-25T22:00:45.185Z,100952.25
2022-07-25T22:03:18.109Z,100957.59
2022-07-25T22:05:48.007Z,100955.84
2022-07-25T22:08:17.735Z,100954.00
2022-07-25T22:10:47.451Z,100952.25
2022-07-25T22:13:17.212Z,100948.66
2022-07-25T22:15:47.169Z,100957.59
2022-07-25T22:18:19.548Z,100949.59
2022-07-25T22:20:49.270Z,100963.84
2022-07-25T22:23:19.046Z,100961.22
2022-07-25T22:25:48.923Z,100965.69
2022-07-25T22:28:21.126Z,100967.50
2022-07-25T22:30:51.250Z,100969.28
2022-07-25T22:33:23.584Z,100963.94
2022-07-25T22:35:53.383Z,100968.41
2022-07-25T22:38:23.553Z,100975.56
2022-07-25T22:40:53.277Z,100973.78
2022-07-25T22:43:22.992Z,100966.63
2022-07-25T22:45:52.925Z,100982.66
2022-07-25T22:48:25.304Z,100977.34
2022-07-25T22:50:55.045Z,100985.38
2022-07-25T22:53:25.031Z,100988.06
2022-07-25T22:55:54.894Z,100988.94
2022-07-25T22:58:27.157Z,100986.28
2022-07-25T23:00:57.244Z,100983.63
2022-07-25T23:03:31.478Z,100989.88
2022-07-25T23:06:02.857Z,100995.25
2022-07-25T23:08:32.759Z,101002.41
2022-07-25T23:11:03.567Z,101000.63
2022-07-25T23:13:33.332Z,100994.41
2022-07-25T23:16:03.605Z,100993.53
2022-07-25T23:18:36.640Z,100997.13
2022-07-25T23:21:06.487Z,101002.47
2022-07-25T23:23:36.601Z,100997.13
2022-07-25T23:26:06.482Z,100997.09
2022-07-25T23:28:36.202Z,101004.22
2022-07-25T23:31:06.046Z,100998.88
2022-07-25T23:33:38.770Z,101007.78
2022-07-25T23:36:09.131Z,101001.53
2022-07-25T23:38:39.393Z,101007.84
2022-07-25T23:41:09.448Z,101010.53
2022-07-25T23:43:57.361Z,101015.00
2022-07-25T23:46:29.344Z,101010.56
2022-07-25T23:49:03.354Z,101009.69
2022-07-25T23:51:33.316Z,101021.28
2022-07-25T23:54:03.210Z,101023.97
2022-07-25T23:56:32.993Z,101019.53
2022-07-25T23:59:02.737Z,101018.63
